This is the latest recevied weather packets stored in our database for station/object EA7RX-3. If no packets are shown the sender has not sent any weather packets the latest 10 day(s).
| Time | Temp. | Humidity | Pressure | Rain* | Wind** | Luminosity | Snow |
|---|---|---|---|---|---|---|---|
| 1777664300 | 22.22° C | 58% | 1014 hPa | - | - | - | - |
| 1777663701 | 22.78° C | 56% | 1013.8 hPa | - | - | - | - |
| 1777663100 | 22.78° C | 54% | 1013.6 hPa | - | - | - | - |
| 1777662501 | 23.33° C | 53% | 1013.6 hPa | - | - | - | - |
| 1777661900 | 23.33° C | 52% | 1013.6 hPa | - | - | - | - |
| 1777661300 | 24.44° C | 47% | 1013.3 hPa | - | - | - | - |
| 1777660700 | 25.56° C | 44% | 1012.8 hPa | - | - | - | - |
| 1777660100 | 26.11° C | 42% | 1012.8 hPa | - | - | - | - |
| 1777659500 | 28.33° C | 38% | 1012.2 hPa | - | - | - | - |
| 1777658900 | 28.89° C | 35% | 1012 hPa | - | - | - | - |
| 1777658302 | 28.33° C | 38% | 1012.1 hPa | - | - | - | - |
| 1777657700 | 30.56° C | 34% | 1011.8 hPa | - | - | - | - |
| 1777657101 | 31.67° C | 35% | 1011.5 hPa | - | - | - | - |
| 1777656500 | 26.11° C | 43% | 1012.8 hPa | - | - | - | - |
| 1777655900 | 26.11° C | 44% | 1012.7 hPa | - | - | - | - |
| 1777655300 | 26.11° C | 45% | 1012.6 hPa | - | - | - | - |
| 1777654700 | 26.11° C | 44% | 1012.7 hPa | - | - | - | - |
| 1777654100 | 25.56° C | 45% | 1012.7 hPa | - | - | - | - |
| 1777653500 | 25.56° C | 47% | 1012.8 hPa | - | - | - | - |
| 1777652902 | 25.56° C | 46% | 1012.7 hPa | - | - | - | - |
| 1777652302 | 25.56° C | 46% | 1012.7 hPa | - | - | - | - |
| 1777651700 | 25.56° C | 46% | 1012.9 hPa | - | - | - | - |
| 1777651100 | 25.56° C | 47% | 1012.8 hPa | - | - | - | - |
| 1777650500 | 25.56° C | 47% | 1013 hPa | - | - | - | - |
| 1777649900 | 25.56° C | 47% | 1012.9 hPa | - | - | - | - |
* Rain since midnight (hover to see other rain measurements)
** Current wind speed in m/s (hover to see current wind gust speed)